Dover, Missouri
Current Conditions -  °F | °C
As of 9:55 AM on Thursday 23 Oct 2014 (Local Time) from KRCM Reporting Station
Overcast Overcast  
Wind Chill: 57°   Ceiling: 2000
Heat Index: 57°   Visibility: 10mi
Dew Point: 52°   Wind: 5mph
Humidity: 82%   Direction: 170°S
Pressure: 30.13"   Gusts: NA
Location:  39.19°N, 93.69°W
Report Text: KRCM 231455Z AUTO 17004KT 10SM OVC020 14/11 A3013 RMK AO2
Loading
Personal Weather Stations






























Interactive Weather Map New forecast layout! Learn more

10-Day Weather Forecast

Advertisements
Track Severe Weather on mobile